sensor_id;sensor_type;location;lat;lon;timestamp;temperature;humidity
1309;DHT22;647;48.840;9.314;2023-03-21T00:02:27;10.40;1.00
1309;DHT22;647;48.840;9.314;2023-03-21T00:04:54;10.40;1.00
1309;DHT22;647;48.840;9.314;2023-03-21T00:07:20;10.50;1.00
1309;DHT22;647;48.840;9.314;2023-03-21T00:09:47;10.50;1.00
1309;DHT22;647;48.840;9.314;2023-03-21T00:12:14;10.50;1.00
1309;DHT22;647;48.840;9.314;2023-03-21T00:14:41;10.50;1.00
1309;DHT22;647;48.840;9.314;2023-03-21T00:17:09;10.30;1.00
1309;DHT22;647;48.840;9.314;2023-03-21T00:19:37;10.30;1.00
1309;DHT22;647;48.840;9.314;2023-03-21T00:22:06;10.30;1.00
1309;DHT22;647;48.840;9.314;2023-03-21T00:24:32;10.20;1.00
1309;DHT22;647;48.840;9.314;2023-03-21T00:26:59;10.10;1.00
1309;DHT22;647;48.840;9.314;2023-03-21T00:29:26;10.00;1.00
1309;DHT22;647;48.840;9.314;2023-03-21T00:31:53;9.90;1.00
1309;DHT22;647;48.840;9.314;2023-03-21T00:34:20;9.80;1.00
1309;DHT22;647;48.840;9.314;2023-03-21T00:36:48;9.90;1.00
1309;DHT22;647;48.840;9.314;2023-03-21T00:39:15;9.80;1.00
1309;DHT22;647;48.840;9.314;2023-03-21T00:41:42;9.80;1.00
1309;DHT22;647;48.840;9.314;2023-03-21T00:44:10;9.90;1.00
1309;DHT22;647;48.840;9.314;2023-03-21T00:46:37;9.90;1.00
1309;DHT22;647;48.840;9.314;2023-03-21T00:49:04;9.90;1.00
1309;DHT22;647;48.840;9.314;2023-03-21T00:51:31;9.90;1.00
1309;DHT22;647;48.840;9.314;2023-03-21T00:53:59;9.80;1.00
1309;DHT22;647;48.840;9.314;2023-03-21T00:56:26;9.80;1.00
1309;DHT22;647;48.840;9.314;2023-03-21T00:58:53;9.80;1.00
1309;DHT22;647;48.840;9.314;2023-03-21T01:01:19;9.90;1.00
1309;DHT22;647;48.840;9.314;2023-03-21T01:03:46;10.00;1.00
1309;DHT22;647;48.840;9.314;2023-03-21T01:06:16;10.10;1.00
1309;DHT22;647;48.840;9.314;2023-03-21T01:08:46;10.10;1.00
1309;DHT22;647;48.840;9.314;2023-03-21T01:11:17;10.10;1.00
1309;DHT22;647;48.840;9.314;2023-03-21T01:13:45;10.10;1.00
1309;DHT22;647;48.840;9.314;2023-03-21T01:16:12;10.10;1.00
1309;DHT22;647;48.840;9.314;2023-03-21T01:23:35;9.90;1.00
1309;DHT22;647;48.840;9.314;2023-03-21T01:26:02;9.90;1.00
1309;DHT22;647;48.840;9.314;2023-03-21T01:28:30;9.90;1.00
1309;DHT22;647;48.840;9.314;2023-03-21T01:33:26;9.80;1.00
1309;DHT22;647;48.840;9.314;2023-03-21T01:35:53;9.80;1.00
1309;DHT22;647;48.840;9.314;2023-03-21T06:13:46;9.20;1.00
1309;DHT22;647;48.840;9.314;2023-03-21T07:00:27;10.10;1.00
1309;DHT22;647;48.840;9.314;2023-03-21T07:12:44;10.20;1.00
1309;DHT22;647;48.840;9.314;2023-03-21T07:15:11;10.50;1.00
1309;DHT22;647;48.840;9.314;2023-03-21T07:17:38;10.50;1.00
1309;DHT22;647;48.840;9.314;2023-03-21T07:20:06;10.60;1.00
1309;DHT22;647;48.840;9.314;2023-03-21T07:34:54;11.00;1.00
1309;DHT22;647;48.840;9.314;2023-03-21T08:58:34;13.60;1.00
1309;DHT22;647;48.840;9.314;2023-03-21T09:01:01;13.80;1.00
1309;DHT22;647;48.840;9.314;2023-03-21T09:30:35;15.90;1.00
1309;DHT22;647;48.840;9.314;2023-03-21T09:50:34;17.10;99.90
1309;DHT22;647;48.840;9.314;2023-03-21T09:53:05;17.40;99.90
1309;DHT22;647;48.840;9.314;2023-03-21T10:05:35;21.30;99.90
1309;DHT22;647;48.840;9.314;2023-03-21T10:10:37;23.30;99.90
1309;DHT22;647;48.840;9.314;2023-03-21T10:13:14;23.20;99.90
1309;DHT22;647;48.840;9.314;2023-03-21T10:30:40;19.00;99.90
1309;DHT22;647;48.840;9.314;2023-03-21T10:48:11;22.80;99.90
1309;DHT22;647;48.840;9.314;2023-03-21T10:50:39;23.50;99.90
1309;DHT22;647;48.840;9.314;2023-03-21T10:53:13;23.70;99.90
1309;DHT22;647;48.840;9.314;2023-03-21T10:55:42;23.80;99.90
1309;DHT22;647;48.840;9.314;2023-03-21T10:58:15;24.30;99.90
1309;DHT22;647;48.840;9.314;2023-03-21T11:00:44;24.50;99.90
1309;DHT22;647;48.840;9.314;2023-03-21T11:03:19;24.10;99.90
1309;DHT22;647;48.840;9.314;2023-03-21T11:05:47;24.30;99.90
1309;DHT22;647;48.840;9.314;2023-03-21T11:08:16;24.00;99.90
1309;DHT22;647;48.840;9.314;2023-03-21T11:10:51;22.80;99.90
1309;DHT22;647;48.840;9.314;2023-03-21T11:18:21;23.50;99.90
1309;DHT22;647;48.840;9.314;2023-03-21T11:28:16;22.90;99.90
1309;DHT22;647;48.840;9.314;2023-03-21T11:30:53;23.30;99.90
1309;DHT22;647;48.840;9.314;2023-03-21T11:53:34;19.50;99.90
1309;DHT22;647;48.840;9.314;2023-03-21T11:56:19;19.70;99.90
1309;DHT22;647;48.840;9.314;2023-03-21T12:01:49;20.50;99.90
1309;DHT22;647;48.840;9.314;2023-03-21T12:04:34;20.80;99.90
1309;DHT22;647;48.840;9.314;2023-03-21T12:07:11;20.90;99.90
1309;DHT22;647;48.840;9.314;2023-03-21T12:09:43;20.90;99.90
1309;DHT22;647;48.840;9.314;2023-03-21T12:32:42;20.10;99.90
1309;DHT22;647;48.840;9.314;2023-03-21T12:35:34;20.00;99.90
1309;DHT22;647;48.840;9.314;2023-03-21T12:45:52;19.90;99.90
1309;DHT22;647;48.840;9.314;2023-03-21T12:48:29;19.90;99.90
1309;DHT22;647;48.840;9.314;2023-03-21T13:06:05;20.00;99.90
1309;DHT22;647;48.840;9.314;2023-03-21T13:08:36;20.00;99.90
1309;DHT22;647;48.840;9.314;2023-03-21T13:13:34;20.00;99.90
1309;DHT22;647;48.840;9.314;2023-03-21T13:16:07;20.10;99.90
1309;DHT22;647;48.840;9.314;2023-03-21T13:18:43;20.20;99.90
1309;DHT22;647;48.840;9.314;2023-03-21T13:21:17;20.60;99.90
1309;DHT22;647;48.840;9.314;2023-03-21T13:24:00;20.80;99.90
1309;DHT22;647;48.840;9.314;2023-03-21T13:29:21;20.70;99.90
1309;DHT22;647;48.840;9.314;2023-03-21T13:31:49;20.90;99.90
1309;DHT22;647;48.840;9.314;2023-03-21T13:34:20;21.00;99.90
1309;DHT22;647;48.840;9.314;2023-03-21T13:49:27;21.10;99.90
1309;DHT22;647;48.840;9.314;2023-03-21T13:51:57;20.90;99.90
1309;DHT22;647;48.840;9.314;2023-03-21T13:59:47;20.60;99.90
1309;DHT22;647;48.840;9.314;2023-03-21T14:02:26;20.50;99.90
1309;DHT22;647;48.840;9.314;2023-03-21T14:04:57;20.60;99.90
1309;DHT22;647;48.840;9.314;2023-03-21T14:07:28;20.50;99.90
1309;DHT22;647;48.840;9.314;2023-03-21T14:09:58;20.40;99.90
1309;DHT22;647;48.840;9.314;2023-03-21T14:12:29;20.20;99.90
1309;DHT22;647;48.840;9.314;2023-03-21T14:14:59;19.90;99.90
1309;DHT22;647;48.840;9.314;2023-03-21T14:17:29;19.80;99.90
1309;DHT22;647;48.840;9.314;2023-03-21T14:20:00;19.80;99.90
1309;DHT22;647;48.840;9.314;2023-03-21T14:22:33;19.70;99.90
1309;DHT22;647;48.840;9.314;2023-03-21T14:25:01;19.50;99.90
1309;DHT22;647;48.840;9.314;2023-03-21T14:27:30;19.50;99.90
1309;DHT22;647;48.840;9.314;2023-03-21T14:29:58;19.30;99.90
1309;DHT22;647;48.840;9.314;2023-03-21T16:05:21;18.10;99.90
1309;DHT22;647;48.840;9.314;2023-03-21T16:07:48;18.10;99.90
1309;DHT22;647;48.840;9.314;2023-03-21T16:10:25;17.90;99.90
1309;DHT22;647;48.840;9.314;2023-03-21T20:46:26;12.90;1.00
1309;DHT22;647;48.840;9.314;2023-03-21T20:48:54;12.90;1.00
1309;DHT22;647;48.840;9.314;2023-03-21T21:08:39;12.70;1.00
1309;DHT22;647;48.840;9.314;2023-03-21T21:16:01;12.70;1.00
